sensor_id;sensor_type;location;lat;lon;timestamp;P1;durP1;ratioP1;P2;durP2;ratioP2
22606;SDS011;11470;20.968;105.834;2023-02-22T00:03:54;53.07;;;30.70;;
22606;SDS011;11470;20.968;105.834;2023-02-22T00:14:06;59.30;;;28.70;;
22606;SDS011;11470;20.968;105.834;2023-02-22T00:19:11;49.65;;;28.33;;
22606;SDS011;11470;20.968;105.834;2023-02-22T00:24:16;47.15;;;26.92;;
22606;SDS011;11470;20.968;105.834;2023-02-22T00:29:28;48.03;;;29.77;;
22606;SDS011;11470;20.968;105.834;2023-02-22T00:34:33;56.33;;;30.60;;
22606;SDS011;11470;20.968;105.834;2023-02-22T00:39:40;48.97;;;28.75;;
22606;SDS011;11470;20.968;105.834;2023-02-22T00:44:45;52.50;;;30.27;;
22606;SDS011;11470;20.968;105.834;2023-02-22T00:49:58;47.92;;;27.75;;
22606;SDS011;11470;20.968;105.834;2023-02-22T00:55:17;55.63;;;29.85;;
22606;SDS011;11470;20.968;105.834;2023-02-22T01:00:37;63.85;;;30.45;;
22606;SDS011;11470;20.968;105.834;2023-02-22T01:05:44;48.95;;;28.38;;
22606;SDS011;11470;20.968;105.834;2023-02-22T01:11:02;55.75;;;31.30;;
22606;SDS011;11470;20.968;105.834;2023-02-22T01:16:07;59.40;;;30.27;;
22606;SDS011;11470;20.968;105.834;2023-02-22T01:21:15;56.63;;;29.95;;
22606;SDS011;11470;20.968;105.834;2023-02-22T01:26:21;60.17;;;31.60;;
22606;SDS011;11470;20.968;105.834;2023-02-22T01:31:27;48.95;;;29.08;;
22606;SDS011;11470;20.968;105.834;2023-02-22T01:36:33;51.85;;;29.50;;
22606;SDS011;11470;20.968;105.834;2023-02-22T01:41:39;55.50;;;31.00;;
22606;SDS011;11470;20.968;105.834;2023-02-22T01:46:45;67.60;;;34.00;;
22606;SDS011;11470;20.968;105.834;2023-02-22T01:51:56;59.00;;;32.33;;
22606;SDS011;11470;20.968;105.834;2023-02-22T01:57:07;70.65;;;33.67;;
22606;SDS011;11470;20.968;105.834;2023-02-22T02:02:38;51.20;;;26.02;;
22606;SDS011;11470;20.968;105.834;2023-02-22T02:07:47;53.75;;;30.23;;
22606;SDS011;11470;20.968;105.834;2023-02-22T02:12:54;53.15;;;28.88;;
22606;SDS011;11470;20.968;105.834;2023-02-22T02:18:06;51.33;;;27.85;;
22606;SDS011;11470;20.968;105.834;2023-02-22T02:39:56;44.05;;;24.30;;
22606;SDS011;11470;20.968;105.834;2023-02-22T02:45:12;43.40;;;15.30;;
22606;SDS011;11470;20.968;105.834;2023-02-22T02:50:45;44.20;;;21.90;;
22606;SDS011;11470;20.968;105.834;2023-02-22T02:56:08;52.33;;;26.75;;
22606;SDS011;11470;20.968;105.834;2023-02-22T03:06:57;50.55;;;26.38;;
22606;SDS011;11470;20.968;105.834;2023-02-22T03:23:28;50.88;;;26.05;;
22606;SDS011;11470;20.968;105.834;2023-02-22T03:29:05;53.92;;;22.95;;
22606;SDS011;11470;20.968;105.834;2023-02-22T03:34:18;45.22;;;23.30;;
22606;SDS011;11470;20.968;105.834;2023-02-22T03:39:36;47.10;;;19.23;;
22606;SDS011;11470;20.968;105.834;2023-02-22T03:44:43;46.22;;;21.70;;
22606;SDS011;11470;20.968;105.834;2023-02-22T03:49:52;42.35;;;18.52;;
22606;SDS011;11470;20.968;105.834;2023-02-22T03:55:04;45.13;;;23.33;;
22606;SDS011;11470;20.968;105.834;2023-02-22T04:00:15;42.42;;;18.38;;
22606;SDS011;11470;20.968;105.834;2023-02-22T04:05:24;36.65;;;18.10;;
22606;SDS011;11470;20.968;105.834;2023-02-22T04:10:31;39.63;;;21.23;;
22606;SDS011;11470;20.968;105.834;2023-02-22T04:15:42;44.35;;;23.08;;
22606;SDS011;11470;20.968;105.834;2023-02-22T04:26:11;48.25;;;21.75;;
22606;SDS011;11470;20.968;105.834;2023-02-22T04:31:20;35.53;;;22.50;;
22606;SDS011;11470;20.968;105.834;2023-02-22T04:36:28;45.70;;;24.52;;
22606;SDS011;11470;20.968;105.834;2023-02-22T04:41:38;45.55;;;23.95;;
22606;SDS011;11470;20.968;105.834;2023-02-22T04:46:45;41.03;;;23.08;;
22606;SDS011;11470;20.968;105.834;2023-02-22T04:51:51;34.20;;;19.10;;
22606;SDS011;11470;20.968;105.834;2023-02-22T04:57:04;41.35;;;20.50;;
22606;SDS011;11470;20.968;105.834;2023-02-22T05:02:11;42.47;;;21.80;;
22606;SDS011;11470;20.968;105.834;2023-02-22T05:07:16;24.02;;;11.60;;
22606;SDS011;11470;20.968;105.834;2023-02-22T05:12:22;38.13;;;19.30;;
22606;SDS011;11470;20.968;105.834;2023-02-22T05:17:31;43.88;;;21.55;;
22606;SDS011;11470;20.968;105.834;2023-02-22T05:22:37;37.97;;;20.07;;
22606;SDS011;11470;20.968;105.834;2023-02-22T05:27:43;32.47;;;17.27;;
22606;SDS011;11470;20.968;105.834;2023-02-22T05:32:49;42.53;;;22.47;;
22606;SDS011;11470;20.968;105.834;2023-02-22T05:43:01;39.30;;;20.87;;
22606;SDS011;11470;20.968;105.834;2023-02-22T05:48:06;41.97;;;21.83;;
22606;SDS011;11470;20.968;105.834;2023-02-22T05:53:13;48.75;;;24.48;;
22606;SDS011;11470;20.968;105.834;2023-02-22T05:58:19;52.53;;;25.88;;
22606;SDS011;11470;20.968;105.834;2023-02-22T06:03:32;36.67;;;19.67;;
22606;SDS011;11470;20.968;105.834;2023-02-22T06:08:38;39.42;;;20.00;;
22606;SDS011;11470;20.968;105.834;2023-02-22T06:13:51;35.42;;;20.92;;
22606;SDS011;11470;20.968;105.834;2023-02-22T06:18:58;42.42;;;23.02;;
22606;SDS011;11470;20.968;105.834;2023-02-22T06:24:04;39.80;;;22.08;;
22606;SDS011;11470;20.968;105.834;2023-02-22T06:29:14;52.58;;;27.88;;
22606;SDS011;11470;20.968;105.834;2023-02-22T06:34:21;50.05;;;26.67;;
22606;SDS011;11470;20.968;105.834;2023-02-22T06:39:27;27.98;;;7.80;;
22606;SDS011;11470;20.968;105.834;2023-02-22T06:44:35;35.28;;;20.50;;
22606;SDS011;11470;20.968;105.834;2023-02-22T06:49:44;35.00;;;17.45;;
22606;SDS011;11470;20.968;105.834;2023-02-22T06:54:56;38.05;;;22.30;;
22606;SDS011;11470;20.968;105.834;2023-02-22T07:05:09;36.38;;;20.27;;
22606;SDS011;11470;20.968;105.834;2023-02-22T07:10:25;31.35;;;18.00;;
22606;SDS011;11470;20.968;105.834;2023-02-22T07:15:33;34.33;;;19.60;;
22606;SDS011;11470;20.968;105.834;2023-02-22T07:20:40;41.38;;;22.23;;
22606;SDS011;11470;20.968;105.834;2023-02-22T07:25:47;27.67;;;16.60;;
22606;SDS011;11470;20.968;105.834;2023-02-22T07:30:56;36.45;;;18.33;;
22606;SDS011;11470;20.968;105.834;2023-02-22T07:36:05;33.45;;;18.88;;
22606;SDS011;11470;20.968;105.834;2023-02-22T07:41:12;33.72;;;19.10;;
22606;SDS011;11470;20.968;105.834;2023-02-22T07:46:20;44.38;;;21.10;;
22606;SDS011;11470;20.968;105.834;2023-02-22T07:51:27;31.85;;;16.25;;
22606;SDS011;11470;20.968;105.834;2023-02-22T07:56:47;26.42;;;16.00;;
22606;SDS011;11470;20.968;105.834;2023-02-22T08:01:56;28.75;;;15.45;;
22606;SDS011;11470;20.968;105.834;2023-02-22T08:07:05;37.45;;;18.63;;
22606;SDS011;11470;20.968;105.834;2023-02-22T08:12:17;31.27;;;17.25;;
22606;SDS011;11470;20.968;105.834;2023-02-22T08:22:28;30.35;;;16.58;;
22606;SDS011;11470;20.968;105.834;2023-02-22T08:27:34;25.13;;;11.05;;
22606;SDS011;11470;20.968;105.834;2023-02-22T08:32:40;28.00;;;16.00;;
22606;SDS011;11470;20.968;105.834;2023-02-22T08:37:51;25.75;;;12.63;;
22606;SDS011;11470;20.968;105.834;2023-02-22T08:43:08;34.13;;;20.05;;
22606;SDS011;11470;20.968;105.834;2023-02-22T08:48:22;32.22;;;16.60;;
22606;SDS011;11470;20.968;105.834;2023-02-22T08:53:36;17.30;;;10.75;;
22606;SDS011;11470;20.968;105.834;2023-02-22T08:58:44;39.85;;;19.90;;
22606;SDS011;11470;20.968;105.834;2023-02-22T09:03:52;28.35;;;13.27;;
22606;SDS011;11470;20.968;105.834;2023-02-22T09:09:02;28.38;;;11.73;;
22606;SDS011;11470;20.968;105.834;2023-02-22T09:14:10;19.98;;;11.25;;
22606;SDS011;11470;20.968;105.834;2023-02-22T09:19:17;23.08;;;12.00;;
22606;SDS011;11470;20.968;105.834;2023-02-22T09:24:24;27.35;;;15.02;;
22606;SDS011;11470;20.968;105.834;2023-02-22T09:29:30;18.75;;;11.77;;
22606;SDS011;11470;20.968;105.834;2023-02-22T09:34:42;24.92;;;12.30;;
22606;SDS011;11470;20.968;105.834;2023-02-22T09:39:50;23.83;;;13.48;;
22606;SDS011;11470;20.968;105.834;2023-02-22T09:45:02;21.02;;;13.55;;
22606;SDS011;11470;20.968;105.834;2023-02-22T09:50:29;30.00;;;13.63;;
22606;SDS011;11470;20.968;105.834;2023-02-22T09:55:49;24.42;;;13.73;;
22606;SDS011;11470;20.968;105.834;2023-02-22T10:01:18;15.38;;;7.35;;
22606;SDS011;11470;20.968;105.834;2023-02-22T10:06:32;27.50;;;12.80;;
22606;SDS011;11470;20.968;105.834;2023-02-22T10:11:55;21.20;;;10.70;;
22606;SDS011;11470;20.968;105.834;2023-02-22T10:17:16;20.23;;;11.70;;
22606;SDS011;11470;20.968;105.834;2023-02-22T10:28:05;34.22;;;18.42;;
22606;SDS011;11470;20.968;105.834;2023-02-22T10:33:22;22.95;;;13.75;;
22606;SDS011;11470;20.968;105.834;2023-02-22T10:38:35;16.70;;;7.78;;
22606;SDS011;11470;20.968;105.834;2023-02-22T10:43:42;15.27;;;8.18;;
22606;SDS011;11470;20.968;105.834;2023-02-22T10:48:52;30.05;;;15.68;;
22606;SDS011;11470;20.968;105.834;2023-02-22T10:54:17;28.08;;;15.70;;
22606;SDS011;11470;20.968;105.834;2023-02-22T10:59:38;26.88;;;15.57;;
22606;SDS011;11470;20.968;105.834;2023-02-22T11:04:47;31.60;;;16.85;;
22606;SDS011;11470;20.968;105.834;2023-02-22T11:09:56;35.63;;;18.42;;
22606;SDS011;11470;20.968;105.834;2023-02-22T11:30:48;53.60;;;24.17;;
22606;SDS011;11470;20.968;105.834;2023-02-22T11:35:58;47.80;;;22.55;;
22606;SDS011;11470;20.968;105.834;2023-02-22T11:41:14;64.43;;;30.38;;
22606;SDS011;11470;20.968;105.834;2023-02-22T11:46:24;87.70;;;38.88;;
22606;SDS011;11470;20.968;105.834;2023-02-22T12:25:06;128.90;;;54.83;;
22606;SDS011;11470;20.968;105.834;2023-02-22T12:30:19;99.53;;;37.75;;
22606;SDS011;11470;20.968;105.834;2023-02-22T12:35:59;118.85;;;44.45;;
22606;SDS011;11470;20.968;105.834;2023-02-22T12:41:21;98.47;;;37.65;;
22606;SDS011;11470;20.968;105.834;2023-02-22T12:47:06;115.68;;;50.72;;
22606;SDS011;11470;20.968;105.834;2023-02-22T12:52:49;128.50;;;51.15;;
22606;SDS011;11470;20.968;105.834;2023-02-22T12:58:57;111.60;;;48.15;;
22606;SDS011;11470;20.968;105.834;2023-02-22T13:04:25;108.60;;;48.30;;
22606;SDS011;11470;20.968;105.834;2023-02-22T13:15:50;108.32;;;44.33;;
22606;SDS011;11470;20.968;105.834;2023-02-22T13:21:44;112.95;;;45.42;;
22606;SDS011;11470;20.968;105.834;2023-02-22T13:27:53;90.32;;;39.75;;
22606;SDS011;11470;20.968;105.834;2023-02-22T13:52:01;70.43;;;32.38;;
22606;SDS011;11470;20.968;105.834;2023-02-22T14:09:00;55.40;;;26.80;;
22606;SDS011;11470;20.968;105.834;2023-02-22T14:20:38;38.78;;;20.65;;
22606;SDS011;11470;20.968;105.834;2023-02-22T14:37:36;41.47;;;19.95;;
22606;SDS011;11470;20.968;105.834;2023-02-22T14:48:41;40.17;;;20.70;;
22606;SDS011;11470;20.968;105.834;2023-02-22T14:54:17;219.63;;;113.25;;
22606;SDS011;11470;20.968;105.834;2023-02-22T15:00:17;142.77;;;70.07;;
22606;SDS011;11470;20.968;105.834;2023-02-22T15:05:56;105.97;;;51.05;;
22606;SDS011;11470;20.968;105.834;2023-02-22T15:11:21;97.25;;;49.00;;
22606;SDS011;11470;20.968;105.834;2023-02-22T15:16:45;100.00;;;48.60;;
22606;SDS011;11470;20.968;105.834;2023-02-22T15:22:22;200.02;;;100.25;;
22606;SDS011;11470;20.968;105.834;2023-02-22T15:28:03;301.40;;;157.93;;
22606;SDS011;11470;20.968;105.834;2023-02-22T15:33:17;201.05;;;104.38;;
22606;SDS011;11470;20.968;105.834;2023-02-22T15:38:40;100.32;;;54.17;;
22606;SDS011;11470;20.968;105.834;2023-02-22T15:44:15;167.10;;;92.40;;
22606;SDS011;11470;20.968;105.834;2023-02-22T15:49:36;158.48;;;83.65;;
22606;SDS011;11470;20.968;105.834;2023-02-22T15:54:51;232.95;;;131.60;;
22606;SDS011;11470;20.968;105.834;2023-02-22T16:00:00;162.07;;;90.15;;
22606;SDS011;11470;20.968;105.834;2023-02-22T16:05:14;158.20;;;86.80;;
22606;SDS011;11470;20.968;105.834;2023-02-22T16:10:29;198.32;;;109.28;;
22606;SDS011;11470;20.968;105.834;2023-02-22T16:15:41;284.60;;;155.77;;
22606;SDS011;11470;20.968;105.834;2023-02-22T16:20:57;311.10;;;190.30;;
22606;SDS011;11470;20.968;105.834;2023-02-22T16:26:21;415.52;;;246.65;;
22606;SDS011;11470;20.968;105.834;2023-02-22T16:31:28;283.63;;;173.88;;
22606;SDS011;11470;20.968;105.834;2023-02-22T16:36:46;285.38;;;162.23;;
22606;SDS011;11470;20.968;105.834;2023-02-22T16:41:58;166.77;;;91.30;;
22606;SDS011;11470;20.968;105.834;2023-02-22T16:47:08;274.40;;;166.50;;
22606;SDS011;11470;20.968;105.834;2023-02-22T16:52:14;228.63;;;134.63;;
22606;SDS011;11470;20.968;105.834;2023-02-22T16:57:20;264.10;;;151.90;;
22606;SDS011;11470;20.968;105.834;2023-02-22T17:02:35;333.83;;;262.00;;
22606;SDS011;11470;20.968;105.834;2023-02-22T17:07:40;143.30;;;87.87;;
22606;SDS011;11470;20.968;105.834;2023-02-22T17:12:48;143.88;;;81.63;;
22606;SDS011;11470;20.968;105.834;2023-02-22T17:17:56;178.90;;;107.18;;
22606;SDS011;11470;20.968;105.834;2023-02-22T17:23:03;250.48;;;153.48;;
22606;SDS011;11470;20.968;105.834;2023-02-22T17:28:11;209.70;;;118.45;;
22606;SDS011;11470;20.968;105.834;2023-02-22T17:33:18;214.10;;;129.18;;
22606;SDS011;11470;20.968;105.834;2023-02-22T17:38:32;399.67;;;253.35;;
22606;SDS011;11470;20.968;105.834;2023-02-22T17:43:39;178.63;;;101.45;;
22606;SDS011;11470;20.968;105.834;2023-02-22T17:48:48;222.02;;;124.55;;
22606;SDS011;11470;20.968;105.834;2023-02-22T17:54:02;132.38;;;70.75;;
22606;SDS011;11470;20.968;105.834;2023-02-22T17:59:08;131.52;;;74.50;;
22606;SDS011;11470;20.968;105.834;2023-02-22T18:04:14;174.85;;;91.40;;
22606;SDS011;11470;20.968;105.834;2023-02-22T18:09:19;99.18;;;55.78;;
22606;SDS011;11470;20.968;105.834;2023-02-22T18:14:26;122.85;;;71.10;;
22606;SDS011;11470;20.968;105.834;2023-02-22T18:19:32;125.22;;;69.55;;
22606;SDS011;11470;20.968;105.834;2023-02-22T18:24:38;129.27;;;72.22;;
22606;SDS011;11470;20.968;105.834;2023-02-22T18:29:44;122.05;;;68.22;;
22606;SDS011;11470;20.968;105.834;2023-02-22T18:34:50;124.73;;;70.43;;
22606;SDS011;11470;20.968;105.834;2023-02-22T18:45:02;110.05;;;65.50;;
22606;SDS011;11470;20.968;105.834;2023-02-22T18:50:09;120.90;;;68.03;;
22606;SDS011;11470;20.968;105.834;2023-02-22T18:55:19;142.02;;;82.15;;
22606;SDS011;11470;20.968;105.834;2023-02-22T19:00:26;139.85;;;86.15;;
22606;SDS011;11470;20.968;105.834;2023-02-22T19:05:54;155.25;;;91.05;;
22606;SDS011;11470;20.968;105.834;2023-02-22T19:11:37;191.73;;;109.63;;
22606;SDS011;11470;20.968;105.834;2023-02-22T19:16:48;155.20;;;91.32;;
22606;SDS011;11470;20.968;105.834;2023-02-22T19:21:54;137.02;;;81.97;;
22606;SDS011;11470;20.968;105.834;2023-02-22T19:27:00;124.15;;;65.05;;
22606;SDS011;11470;20.968;105.834;2023-02-22T19:32:11;112.18;;;60.95;;
22606;SDS011;11470;20.968;105.834;2023-02-22T19:37:19;122.18;;;68.95;;
22606;SDS011;11470;20.968;105.834;2023-02-22T19:42:25;119.03;;;67.38;;
22606;SDS011;11470;20.968;105.834;2023-02-22T19:47:31;145.75;;;80.18;;
22606;SDS011;11470;20.968;105.834;2023-02-22T19:52:36;150.00;;;85.03;;
22606;SDS011;11470;20.968;105.834;2023-02-22T19:57:43;129.45;;;78.18;;
22606;SDS011;11470;20.968;105.834;2023-02-22T20:02:55;130.68;;;77.15;;
22606;SDS011;11470;20.968;105.834;2023-02-22T20:08:08;124.35;;;70.50;;
22606;SDS011;11470;20.968;105.834;2023-02-22T20:13:14;105.78;;;59.72;;
22606;SDS011;11470;20.968;105.834;2023-02-22T20:23:26;126.97;;;72.68;;
22606;SDS011;11470;20.968;105.834;2023-02-22T20:33:38;111.53;;;66.20;;
22606;SDS011;11470;20.968;105.834;2023-02-22T20:38:45;126.80;;;71.75;;
22606;SDS011;11470;20.968;105.834;2023-02-22T20:43:52;123.43;;;73.25;;
22606;SDS011;11470;20.968;105.834;2023-02-22T20:48:59;110.95;;;64.63;;
22606;SDS011;11470;20.968;105.834;2023-02-22T20:54:08;119.32;;;68.97;;
22606;SDS011;11470;20.968;105.834;2023-02-22T20:59:16;115.00;;;71.80;;
22606;SDS011;11470;20.968;105.834;2023-02-22T21:04:22;116.95;;;66.57;;
22606;SDS011;11470;20.968;105.834;2023-02-22T21:09:29;162.20;;;95.20;;
22606;SDS011;11470;20.968;105.834;2023-02-22T21:14:37;189.50;;;110.60;;
22606;SDS011;11470;20.968;105.834;2023-02-22T21:19:44;146.27;;;80.85;;
22606;SDS011;11470;20.968;105.834;2023-02-22T21:24:50;138.00;;;76.93;;
22606;SDS011;11470;20.968;105.834;2023-02-22T21:29:56;122.82;;;70.57;;
22606;SDS011;11470;20.968;105.834;2023-02-22T21:35:02;114.73;;;66.27;;
22606;SDS011;11470;20.968;105.834;2023-02-22T21:40:08;113.13;;;63.63;;
22606;SDS011;11470;20.968;105.834;2023-02-22T21:45:15;109.30;;;63.92;;
22606;SDS011;11470;20.968;105.834;2023-02-22T21:50:22;118.68;;;65.95;;
22606;SDS011;11470;20.968;105.834;2023-02-22T21:55:31;105.07;;;63.25;;
22606;SDS011;11470;20.968;105.834;2023-02-22T22:00:37;108.57;;;65.00;;
22606;SDS011;11470;20.968;105.834;2023-02-22T22:05:46;105.07;;;56.97;;
22606;SDS011;11470;20.968;105.834;2023-02-22T22:10:51;120.22;;;64.90;;
22606;SDS011;11470;20.968;105.834;2023-02-22T22:16:02;107.78;;;61.75;;
22606;SDS011;11470;20.968;105.834;2023-02-22T22:21:15;107.22;;;64.18;;
22606;SDS011;11470;20.968;105.834;2023-02-22T22:26:23;108.53;;;65.57;;
22606;SDS011;11470;20.968;105.834;2023-02-22T22:31:30;115.53;;;67.93;;
22606;SDS011;11470;20.968;105.834;2023-02-22T22:36:36;111.65;;;67.03;;
22606;SDS011;11470;20.968;105.834;2023-02-22T22:41:42;137.45;;;73.65;;
22606;SDS011;11470;20.968;105.834;2023-02-22T22:46:49;119.75;;;64.93;;
22606;SDS011;11470;20.968;105.834;2023-02-22T22:51:58;119.03;;;64.50;;
22606;SDS011;11470;20.968;105.834;2023-02-22T22:57:05;121.35;;;59.92;;
22606;SDS011;11470;20.968;105.834;2023-02-22T23:02:10;139.73;;;71.70;;
22606;SDS011;11470;20.968;105.834;2023-02-22T23:07:16;96.30;;;49.55;;
22606;SDS011;11470;20.968;105.834;2023-02-22T23:12:22;93.82;;;47.47;;
22606;SDS011;11470;20.968;105.834;2023-02-22T23:17:34;102.63;;;58.95;;
22606;SDS011;11470;20.968;105.834;2023-02-22T23:22:48;92.88;;;53.83;;
22606;SDS011;11470;20.968;105.834;2023-02-22T23:27:56;91.22;;;45.70;;
22606;SDS011;11470;20.968;105.834;2023-02-22T23:33:02;88.45;;;51.28;;
22606;SDS011;11470;20.968;105.834;2023-02-22T23:38:09;85.03;;;47.28;;
22606;SDS011;11470;20.968;105.834;2023-02-22T23:43:14;77.90;;;46.53;;
22606;SDS011;11470;20.968;105.834;2023-02-22T23:53:27;90.63;;;54.93;;
22606;SDS011;11470;20.968;105.834;2023-02-22T23:58:33;90.00;;;49.85;;
